Hillsboro Beach, Florida
Current Conditions -  °F | °C
As of 7:53 PM on Monday 26 Jan 2015 (Local Time) from KPMP Reporting Station
Clear Clear  
Wind Chill: 65°   Ceiling: Unl
Heat Index: 65°   Visibility: 10mi
Dew Point: 47°   Wind: 14mph
Humidity: 52%   Direction: 270°W
Pressure: 29.93"   Gusts: NA
Location:  26.2377°N, 80.0981°W
Report Text: KPMP 270053Z 27012KT 10SM CLR 18/08 A2993 RMK AO2 SLP135 T01830083
Loading
Personal Weather Stations






























Interactive Weather Map New forecast layout! Learn more

10-Day Weather Forecast

Advertisements
Track Severe Weather on mobile